createdAt,value
2017-12-20T00:00:46.816Z,96301.59
2017-12-20T00:03:15.142Z,96301.38
2017-12-20T00:05:43.498Z,96304.97
2017-12-20T00:08:11.836Z,96296.11
2017-12-20T00:10:40.199Z,96284.78
2017-12-20T00:13:08.558Z,96270.58
2017-12-20T00:15:36.905Z,96267.38
2017-12-20T00:18:05.254Z,96263.87
2017-12-20T00:20:33.586Z,96265.52
2017-12-20T00:23:02.002Z,96250.46
2017-12-20T00:25:30.375Z,96241.84
2017-12-20T00:27:58.710Z,96240.77
2017-12-20T00:30:27.053Z,96224.95
2017-12-20T00:32:55.391Z,96221.21
2017-12-20T00:35:23.442Z,96222.59
2017-12-20T00:37:51.535Z,96229.91
2017-12-20T00:40:19.601Z,96236.59
2017-12-20T00:42:47.952Z,96242.81
2017-12-20T00:45:16.321Z,96253.47
2017-12-20T00:47:44.666Z,96258.61
2017-12-20T00:50:13.062Z,96265.66
2017-12-20T00:52:41.394Z,96272.11
2017-12-20T00:55:09.748Z,96275.09
2017-12-20T00:57:38.079Z,96286.60
2017-12-20T01:00:06.568Z,96274.61
2017-12-20T01:02:34.907Z,96275.25
2017-12-20T01:05:03.245Z,96260.77
2017-12-20T01:07:31.600Z,96252.38
2017-12-20T01:10:00.035Z,96251.95
2017-12-20T01:12:28.409Z,96252.27
2017-12-20T01:14:56.763Z,96257.91
2017-12-20T01:17:25.106Z,96266.81
2017-12-20T01:19:53.456Z,96273.00
2017-12-20T01:22:21.811Z,96270.12
2017-12-20T01:24:50.181Z,96272.98
2017-12-20T01:27:18.519Z,96273.42
2017-12-20T01:29:46.862Z,96264.87
2017-12-20T01:32:15.196Z,96260.86
2017-12-20T01:34:43.521Z,96257.05
2017-12-20T01:37:11.894Z,96244.92
2017-12-20T01:39:40.240Z,96247.88
2017-12-20T01:42:08.580Z,96253.74
2017-12-20T01:44:36.961Z,96258.00
2017-12-20T01:47:05.326Z,96255.25
2017-12-20T01:49:33.684Z,96270.02
2017-12-20T01:52:02.033Z,96281.91
2017-12-20T01:54:30.390Z,96286.89
2017-12-20T01:56:58.864Z,96293.32
2017-12-20T01:59:27.205Z,96288.55
2017-12-20T02:01:55.544Z,96284.56
2017-12-20T02:04:23.878Z,96280.64
2017-12-20T02:06:52.223Z,96277.27
2017-12-20T02:09:20.617Z,96274.27
2017-12-20T02:11:48.964Z,96265.13
2017-12-20T02:14:17.319Z,96267.42
2017-12-20T02:16:45.643Z,96256.33
2017-12-20T02:19:13.976Z,96253.45
2017-12-20T02:21:42.314Z,96251.53
2017-12-20T02:24:10.648Z,96241.73
2017-12-20T02:26:39.010Z,96241.95
2017-12-20T02:29:07.344Z,96246.50
2017-12-20T02:31:35.674Z,96250.31
2017-12-20T02:34:04.010Z,96246.01
2017-12-20T02:36:32.355Z,96244.92
2017-12-20T02:39:05.472Z,96245.26
2017-12-20T02:41:33.804Z,96252.55
2017-12-20T02:44:02.139Z,96257.09
2017-12-20T02:46:30.470Z,96257.16
2017-12-20T02:48:58.847Z,96259.17
2017-12-20T02:51:27.216Z,96261.21
2017-12-20T02:53:55.549Z,96262.72
2017-12-20T02:56:23.887Z,96263.90
2017-12-20T02:58:52.210Z,96256.54
2017-12-20T03:01:20.554Z,96255.20
2017-12-20T03:03:48.883Z,96256.10
2017-12-20T03:06:17.347Z,96261.03
2017-12-20T03:08:45.674Z,96263.28
2017-12-20T03:11:13.997Z,96270.52
2017-12-20T03:13:42.346Z,96270.91
2017-12-20T03:16:10.716Z,96269.34
2017-12-20T03:18:39.030Z,96266.47
2017-12-20T03:21:07.358Z,96265.36
2017-12-20T03:23:35.814Z,96267.83
2017-12-20T03:26:04.158Z,96263.11
2017-12-20T03:28:32.547Z,96261.97
2017-12-20T03:31:00.880Z,96258.69
2017-12-20T03:33:29.214Z,96255.53
2017-12-20T03:35:57.544Z,96252.63
2017-12-20T03:38:25.908Z,96255.55
2017-12-20T03:40:54.258Z,96252.45
2017-12-20T03:43:22.602Z,96260.58
2017-12-20T03:45:50.930Z,96255.98
2017-12-20T03:48:19.262Z,96252.95
2017-12-20T03:50:47.597Z,96255.31
2017-12-20T03:53:15.969Z,96252.61
2017-12-20T03:55:44.327Z,96252.55
2017-12-20T03:58:12.650Z,96246.72
2017-12-20T04:00:41.028Z,96248.69
2017-12-20T04:03:09.345Z,96250.13
2017-12-20T04:05:37.706Z,96249.52
2017-12-20T04:08:06.068Z,96253.64
2017-12-20T04:10:34.394Z,96257.09
2017-12-20T04:13:02.731Z,96249.52
2017-12-20T04:15:31.054Z,96245.83
2017-12-20T04:17:59.392Z,96247.48
2017-12-20T04:20:27.747Z,96248.91
2017-12-20T04:22:56.104Z,96254.58
2017-12-20T04:25:24.422Z,96249.63
2017-12-20T04:27:52.758Z,96254.36
2017-12-20T04:30:21.095Z,96249.47
2017-12-20T04:32:49.462Z,96262.27
2017-12-20T04:35:17.797Z,96260.25
2017-12-20T04:37:46.134Z,96258.67
2017-12-20T04:40:14.453Z,96266.81
2017-12-20T04:42:42.790Z,96263.33
2017-12-20T04:45:11.157Z,96258.85
2017-12-20T04:47:39.483Z,96258.66
2017-12-20T04:50:07.810Z,96253.06
2017-12-20T04:52:36.137Z,96253.65
2017-12-20T04:55:04.460Z,96255.12
2017-12-20T04:57:32.802Z,96249.25
2017-12-20T05:00:01.131Z,96256.70
2017-12-20T05:02:29.454Z,96253.63
2017-12-20T05:04:57.947Z,96247.22
2017-12-20T05:07:26.264Z,96250.92
2017-12-20T05:09:54.601Z,96255.91
2017-12-20T05:12:22.970Z,96247.88
2017-12-20T05:14:51.323Z,96250.58
2017-12-20T05:17:19.667Z,96243.56
2017-12-20T05:19:48.013Z,96245.30
2017-12-20T05:22:16.339Z,96238.52
2017-12-20T05:24:44.719Z,96230.59
2017-12-20T05:27:13.046Z,96229.73
2017-12-20T05:29:41.384Z,96237.34
2017-12-20T05:32:09.725Z,96232.52
2017-12-20T05:34:38.043Z,96232.73
2017-12-20T05:37:06.407Z,96233.97
2017-12-20T05:39:34.745Z,96239.23
2017-12-20T05:42:03.087Z,96241.54
2017-12-20T05:44:31.421Z,96249.39
2017-12-20T05:46:59.746Z,96249.72
2017-12-20T05:49:28.107Z,96253.78
2017-12-20T05:51:56.446Z,96259.23
2017-12-20T05:54:24.776Z,96261.36
2017-12-20T05:56:53.106Z,96269.45
2017-12-20T05:59:21.450Z,96268.99
2017-12-20T06:01:49.824Z,96276.88
2017-12-20T06:04:18.155Z,96279.64
2017-12-20T06:09:21.075Z,96282.02
2017-12-20T06:11:49.423Z,96280.76
2017-12-20T06:14:17.798Z,96282.88
2017-12-20T06:16:46.126Z,96286.47
2017-12-20T06:19:14.456Z,96281.48
2017-12-20T06:21:42.781Z,96277.31
2017-12-20T06:24:11.110Z,96275.01
2017-12-20T06:26:39.482Z,96274.78
2017-12-20T06:29:07.799Z,96274.01
2017-12-20T06:31:36.140Z,96271.06
2017-12-20T06:34:04.483Z,96279.64
2017-12-20T06:36:32.810Z,96287.92
2017-12-20T06:39:01.371Z,96299.51
2017-12-20T06:41:29.712Z,96295.23
2017-12-20T06:43:58.035Z,96294.69
2017-12-20T06:46:26.370Z,96297.48
2017-12-20T06:48:54.711Z,96298.16
2017-12-20T06:51:23.066Z,96295.72
2017-12-20T06:53:51.419Z,96299.61
2017-12-20T07:00:03.709Z,96293.13
2017-12-20T07:02:32.091Z,96292.59
2017-12-20T07:05:00.415Z,96293.42
2017-12-20T07:07:28.738Z,96287.78
2017-12-20T07:09:57.072Z,96298.12
2017-12-20T07:12:25.397Z,96305.26
2017-12-20T07:14:53.809Z,96307.75
2017-12-20T07:17:22.155Z,96311.61
2017-12-20T07:19:50.498Z,96314.29
2017-12-20T07:22:18.831Z,96315.09
2017-12-20T07:24:47.162Z,96322.72
2017-12-20T07:27:15.531Z,96326.28
2017-12-20T07:29:43.899Z,96328.27
2017-12-20T07:32:12.237Z,96327.14
2017-12-20T07:34:40.562Z,96329.38
2017-12-20T07:37:08.897Z,96332.41
2017-12-20T07:39:37.237Z,96333.11
2017-12-20T07:42:05.558Z,96329.51
2017-12-20T07:44:33.914Z,96334.68
2017-12-20T07:47:02.250Z,96344.05
2017-12-20T07:49:30.596Z,96344.88
2017-12-20T07:51:58.925Z,96344.97
2017-12-20T07:54:27.256Z,96345.47
2017-12-20T07:56:55.595Z,96347.27
2017-12-20T07:59:23.926Z,96350.00
2017-12-20T08:01:52.272Z,96355.61
2017-12-20T08:04:20.605Z,96352.41
2017-12-20T08:06:48.934Z,96356.30
2017-12-20T08:09:17.274Z,96363.74
2017-12-20T08:11:45.606Z,96362.45
2017-12-20T08:14:13.952Z,96363.50
2017-12-20T08:16:42.328Z,96368.91
2017-12-20T08:19:10.732Z,96369.27
2017-12-20T08:21:39.057Z,96371.39
2017-12-20T08:24:07.408Z,96376.02
2017-12-20T08:26:35.752Z,96380.23
2017-12-20T08:29:04.109Z,96386.51
2017-12-20T08:31:32.444Z,96384.20
2017-12-20T08:34:00.764Z,96383.31
2017-12-20T08:36:29.095Z,96381.51
2017-12-20T08:38:57.425Z,96385.31
2017-12-20T08:41:25.834Z,96377.34
2017-12-20T08:43:54.345Z,96383.67
2017-12-20T08:46:22.700Z,96383.89
2017-12-20T08:48:51.057Z,96377.56
2017-12-20T08:51:19.388Z,96376.98
2017-12-20T08:53:47.743Z,96376.52
2017-12-20T08:56:16.075Z,96379.58
2017-12-20T08:58:44.454Z,96374.28
2017-12-20T09:01:12.784Z,96382.39
2017-12-20T09:03:41.919Z,96380.00
2017-12-20T09:06:10.247Z,96374.55
2017-12-20T09:08:38.586Z,96378.97
2017-12-20T09:11:06.937Z,96385.44
2017-12-20T09:13:35.305Z,96380.38
2017-12-20T09:16:03.646Z,96382.59
2017-12-20T09:18:31.980Z,96380.30
2017-12-20T09:21:00.339Z,96375.26
2017-12-20T09:23:28.689Z,96372.31
2017-12-20T09:25:57.082Z,96375.27
2017-12-20T09:28:25.518Z,96364.80
2017-12-20T09:30:54.129Z,96366.46
2017-12-20T09:33:22.522Z,96371.73
2017-12-20T09:35:50.859Z,96374.59
2017-12-20T09:38:19.340Z,96387.02
2017-12-20T09:40:47.665Z,96387.22
2017-12-20T09:43:16.011Z,96394.16
2017-12-20T09:45:44.345Z,96399.94
2017-12-20T09:48:12.682Z,96397.49
2017-12-20T09:50:41.038Z,96400.52
2017-12-20T09:53:09.379Z,96396.63
2017-12-20T09:55:37.720Z,96401.37
2017-12-20T09:58:06.073Z,96397.11
2017-12-20T10:00:34.421Z,96401.77
2017-12-20T10:03:02.887Z,96405.41
2017-12-20T10:05:31.230Z,96408.64
2017-12-20T10:07:59.579Z,96405.89
2017-12-20T10:10:27.910Z,96407.77
2017-12-20T10:12:56.262Z,96404.28
2017-12-20T10:15:24.599Z,96398.30
2017-12-20T10:17:53.269Z,96396.94
2017-12-20T10:20:21.764Z,96390.36
2017-12-20T10:22:50.105Z,96388.97
2017-12-20T10:25:18.463Z,96390.69
2017-12-20T10:27:46.806Z,96389.83
2017-12-20T10:30:15.154Z,96390.36
2017-12-20T10:32:43.644Z,96388.18
2017-12-20T10:35:11.982Z,96382.45
2017-12-20T10:37:40.341Z,96373.41
2017-12-20T10:40:08.680Z,96381.75
2017-12-20T10:42:37.022Z,96378.83
2017-12-20T10:45:05.406Z,96383.72
2017-12-20T10:47:33.772Z,96381.26
2017-12-20T10:50:02.127Z,96378.25
2017-12-20T10:52:30.450Z,96387.95
2017-12-20T10:54:58.807Z,96390.80
2017-12-20T10:57:27.165Z,96383.90
2017-12-20T10:59:55.512Z,96385.64
2017-12-20T11:02:23.851Z,96386.28
2017-12-20T11:04:52.183Z,96384.57
2017-12-20T11:07:20.525Z,96383.63
2017-12-20T11:09:48.944Z,96381.98
2017-12-20T11:12:17.277Z,96383.66
2017-12-20T11:14:45.630Z,96379.36
2017-12-20T11:17:13.959Z,96379.16
2017-12-20T11:19:42.303Z,96378.64
2017-12-20T11:22:10.668Z,96370.52
2017-12-20T11:24:39.093Z,96377.44
2017-12-20T11:27:07.425Z,96371.60
2017-12-20T11:29:35.773Z,96376.48
2017-12-20T11:32:04.128Z,96372.31
2017-12-20T11:34:32.496Z,96363.52
2017-12-20T11:37:00.880Z,96370.58
2017-12-20T11:39:29.245Z,96368.39
2017-12-20T11:41:57.620Z,96375.87
2017-12-20T11:44:25.965Z,96374.88
2017-12-20T11:46:54.312Z,96370.02
2017-12-20T11:49:22.657Z,96367.48
2017-12-20T11:51:54.853Z,96363.17
2017-12-20T11:54:23.501Z,96353.89
2017-12-20T11:56:51.826Z,96363.08
2017-12-20T11:59:20.176Z,96364.64
2017-12-20T12:01:48.560Z,96358.23
2017-12-20T12:04:16.907Z,96357.03
2017-12-20T12:06:45.242Z,96353.82
2017-12-20T12:09:13.629Z,96350.07
2017-12-20T12:11:41.982Z,96353.48
2017-12-20T12:14:10.334Z,96348.90
2017-12-20T12:16:38.660Z,96351.14
2017-12-20T12:19:07.012Z,96353.80
2017-12-20T12:21:35.477Z,96353.55
2017-12-20T12:24:04.023Z,96350.84
2017-12-20T12:26:32.406Z,96356.56
2017-12-20T12:29:00.757Z,96352.47
2017-12-20T12:31:29.089Z,96352.50
2017-12-20T12:33:57.458Z,96347.04
2017-12-20T12:36:25.839Z,96342.47
2017-12-20T12:38:54.167Z,96344.25
2017-12-20T12:41:22.514Z,96349.49
2017-12-20T12:43:50.913Z,96345.46
2017-12-20T12:46:19.290Z,96349.31
2017-12-20T12:48:47.646Z,96339.36
2017-12-20T12:51:15.978Z,96334.72
2017-12-20T12:53:44.357Z,96335.30
2017-12-20T12:56:12.699Z,96331.38
2017-12-20T12:58:41.043Z,96336.39
2017-12-20T13:01:09.378Z,96340.36
2017-12-20T13:03:37.937Z,96330.25
2017-12-20T13:06:06.355Z,96337.35
2017-12-20T13:08:34.701Z,96338.28
2017-12-20T13:11:03.045Z,96339.22
2017-12-20T13:13:31.870Z,96333.30
2017-12-20T13:16:00.965Z,96332.94
2017-12-20T13:18:30.236Z,96336.75
2017-12-20T13:20:58.576Z,96340.95
2017-12-20T13:23:26.902Z,96339.17
2017-12-20T13:25:55.243Z,96338.87
2017-12-20T13:28:23.653Z,96343.48
2017-12-20T13:30:52.157Z,96338.08
2017-12-20T13:33:20.493Z,96340.69
2017-12-20T13:35:48.835Z,96339.29
2017-12-20T13:38:17.182Z,96334.43
2017-12-20T13:40:45.571Z,96341.23
2017-12-20T13:43:13.931Z,96341.61
2017-12-20T13:45:42.283Z,96342.95
2017-12-20T13:48:10.649Z,96341.41
2017-12-20T13:50:38.983Z,96354.42
2017-12-20T13:53:07.469Z,96355.92
2017-12-20T13:55:35.804Z,96357.77
2017-12-20T13:58:04.137Z,96356.91
2017-12-20T14:00:32.477Z,96359.98
2017-12-20T14:03:00.907Z,96366.30
2017-12-20T14:05:29.257Z,96358.29
2017-12-20T14:07:57.582Z,96364.58
2017-12-20T14:10:25.984Z,96367.70
2017-12-20T14:12:54.335Z,96362.85
2017-12-20T14:15:22.671Z,96367.20
2017-12-20T14:17:50.998Z,96368.28
2017-12-20T14:20:19.339Z,96368.38
2017-12-20T14:22:47.724Z,96374.05
2017-12-20T14:28:07.987Z,96376.81
2017-12-20T14:30:36.344Z,96378.56
2017-12-20T14:33:04.677Z,96378.42
2017-12-20T14:35:33.014Z,96377.86
2017-12-20T14:38:01.359Z,96381.30
2017-12-20T14:40:29.736Z,96381.40
2017-12-20T14:42:58.068Z,96374.13
2017-12-20T14:45:26.486Z,96377.17
2017-12-20T14:47:54.836Z,96379.22
2017-12-20T14:50:23.178Z,96377.80
2017-12-20T14:52:51.590Z,96373.31
2017-12-20T14:55:19.946Z,96380.64
2017-12-20T14:57:48.287Z,96390.09
2017-12-20T15:00:18.359Z,96390.80
2017-12-20T15:02:46.709Z,96389.19
2017-12-20T15:05:15.151Z,96394.95
2017-12-20T15:07:43.479Z,96392.08
2017-12-20T15:10:11.812Z,96394.75
2017-12-20T15:12:40.145Z,96399.97
2017-12-20T15:15:08.489Z,96400.20
2017-12-20T15:17:36.869Z,96399.98
2017-12-20T15:20:05.193Z,96395.45
2017-12-20T15:22:33.551Z,96399.39
2017-12-20T15:25:01.893Z,96403.06
2017-12-20T15:27:30.240Z,96410.73
2017-12-20T15:29:58.708Z,96408.73
2017-12-20T15:32:27.038Z,96405.11
2017-12-20T15:34:55.370Z,96402.25
2017-12-20T15:37:23.721Z,96406.05
2017-12-20T15:39:52.080Z,96408.94
2017-12-20T15:42:20.418Z,96402.30
2017-12-20T15:44:48.753Z,96407.27
2017-12-20T15:47:17.134Z,96406.39
2017-12-20T15:49:45.490Z,96412.42
2017-12-20T15:52:13.827Z,96407.86
2017-12-20T15:54:42.165Z,96411.22
2017-12-20T15:57:10.582Z,96406.36
2017-12-20T15:59:38.967Z,96412.02
2017-12-20T16:02:07.298Z,96410.56
2017-12-20T16:04:35.645Z,96407.25
2017-12-20T16:07:03.969Z,96411.63
2017-12-20T16:09:32.311Z,96414.04
2017-12-20T16:12:00.652Z,96410.02
2017-12-20T16:14:28.986Z,96413.31
2017-12-20T16:16:57.323Z,96419.63
2017-12-20T16:19:25.673Z,96419.30
2017-12-20T16:21:54.076Z,96416.00
2017-12-20T16:24:22.443Z,96413.15
2017-12-20T16:26:50.778Z,96411.58
2017-12-20T16:29:19.114Z,96409.65
2017-12-20T16:31:47.449Z,96410.42
2017-12-20T16:34:15.790Z,96404.78
2017-12-20T16:36:44.138Z,96408.70
2017-12-20T16:39:12.513Z,96413.11
2017-12-20T16:41:40.858Z,96418.61
2017-12-20T16:44:09.216Z,96404.98
2017-12-20T16:46:37.560Z,96406.91
2017-12-20T16:49:05.898Z,96401.92
2017-12-20T16:51:34.269Z,96400.48
2017-12-20T16:54:02.596Z,96395.97
2017-12-20T16:56:30.949Z,96397.22
2017-12-20T16:58:59.293Z,96401.38
2017-12-20T17:01:27.652Z,96403.20
2017-12-20T17:03:55.990Z,96406.16
2017-12-20T17:06:24.328Z,96410.56
2017-12-20T17:08:52.661Z,96415.31
2017-12-20T17:11:20.997Z,96413.93
2017-12-20T17:13:49.334Z,96428.61
2017-12-20T17:16:17.714Z,96435.47
2017-12-20T17:18:46.044Z,96432.19
2017-12-20T17:21:14.408Z,96439.23
2017-12-20T17:23:42.802Z,96443.06
2017-12-20T17:26:11.336Z,96444.19
2017-12-20T17:28:39.673Z,96449.59
2017-12-20T17:31:08.005Z,96448.36
2017-12-20T17:33:36.395Z,96453.27
2017-12-20T17:36:04.686Z,96448.17
2017-12-20T17:38:33.027Z,96445.98
2017-12-20T17:41:01.361Z,96447.57
2017-12-20T17:43:29.699Z,96452.72
2017-12-20T17:45:58.071Z,96445.22
2017-12-20T17:48:26.403Z,96446.10
2017-12-20T17:50:54.773Z,96449.02
2017-12-20T17:53:23.111Z,96449.45
2017-12-20T17:55:51.467Z,96449.87
2017-12-20T17:58:19.807Z,96450.28
2017-12-20T18:00:48.157Z,96451.37
2017-12-20T18:03:16.506Z,96446.10
2017-12-20T18:05:44.855Z,96446.22
2017-12-20T18:08:13.185Z,96439.55
2017-12-20T18:10:42.507Z,96440.89
2017-12-20T18:13:10.862Z,96437.11
2017-12-20T18:15:39.253Z,96445.62
2017-12-20T18:18:07.597Z,96447.67
2017-12-20T18:20:35.941Z,96453.34
2017-12-20T18:23:04.337Z,96447.16
2017-12-20T18:25:32.680Z,96450.67
2017-12-20T18:28:01.099Z,96447.13
2017-12-20T18:30:29.444Z,96445.38
2017-12-20T18:32:57.812Z,96438.41
2017-12-20T18:35:26.158Z,96439.64
2017-12-20T18:37:54.505Z,96441.52
2017-12-20T18:40:22.854Z,96436.31
2017-12-20T18:42:51.193Z,96436.06
2017-12-20T18:45:19.550Z,96430.41
2017-12-20T18:47:47.903Z,96438.27
2017-12-20T18:50:16.240Z,96425.17
2017-12-20T18:52:44.585Z,96431.56
2017-12-20T18:55:12.926Z,96428.36
2017-12-20T18:57:41.427Z,96425.06
2017-12-20T19:00:09.792Z,96424.07
2017-12-20T19:02:38.131Z,96423.12
2017-12-20T19:05:06.480Z,96427.92
2017-12-20T19:07:34.822Z,96433.41
2017-12-20T19:10:03.194Z,96437.05
2017-12-20T19:12:31.535Z,96443.27
2017-12-20T19:14:59.911Z,96442.78
2017-12-20T19:17:28.246Z,96448.13
2017-12-20T19:19:56.578Z,96444.80
2017-12-20T19:22:24.918Z,96450.34
2017-12-20T19:24:53.263Z,96449.13
2017-12-20T19:27:21.747Z,96454.37
2017-12-20T19:29:50.104Z,96443.56
2017-12-20T19:32:18.430Z,96450.08
2017-12-20T19:34:46.803Z,96445.36
2017-12-20T19:37:15.162Z,96454.86
2017-12-20T19:39:43.539Z,96456.25
2017-12-20T19:42:11.933Z,96458.05
2017-12-20T19:44:40.279Z,96466.63
2017-12-20T19:49:43.410Z,96475.02
2017-12-20T19:52:11.863Z,96476.61
2017-12-20T19:54:40.286Z,96480.59
2017-12-20T19:57:08.635Z,96484.86
2017-12-20T19:59:36.999Z,96474.95
2017-12-20T20:02:05.355Z,96468.58
2017-12-20T20:04:33.721Z,96466.78
2017-12-20T20:07:02.074Z,96465.86
2017-12-20T20:09:30.447Z,96463.76
2017-12-20T20:11:58.777Z,96459.22
2017-12-20T20:14:27.167Z,96462.20
2017-12-20T20:16:55.501Z,96452.75
2017-12-20T20:19:23.893Z,96448.29
2017-12-20T20:21:52.275Z,96442.05
2017-12-20T20:24:20.615Z,96439.31
2017-12-20T20:26:48.990Z,96457.08
2017-12-20T20:29:17.492Z,96471.13
2017-12-20T20:31:46.088Z,96459.44
2017-12-20T20:34:14.521Z,96461.72
2017-12-20T20:36:42.897Z,96457.44
2017-12-20T20:39:11.230Z,96455.58
2017-12-20T20:41:39.602Z,96455.88
2017-12-20T20:44:07.990Z,96453.02
2017-12-20T20:46:36.327Z,96453.59
2017-12-20T20:49:04.675Z,96451.02
2017-12-20T20:51:33.039Z,96452.80
2017-12-20T20:54:01.431Z,96455.27
2017-12-20T20:56:30.000Z,96443.51
2017-12-20T20:58:59.797Z,96446.94
2017-12-20T21:01:28.255Z,96450.35
2017-12-20T21:03:56.814Z,96436.70
2017-12-20T21:06:25.154Z,96436.78
2017-12-20T21:08:53.523Z,96444.09
2017-12-20T21:11:21.866Z,96449.47
2017-12-20T21:13:50.211Z,96456.99
2017-12-20T21:16:18.562Z,96451.61
2017-12-20T21:18:46.915Z,96453.05
2017-12-20T21:21:15.321Z,96450.06
2017-12-20T21:23:43.652Z,96437.43
2017-12-20T21:26:11.996Z,96438.94
2017-12-20T21:28:40.338Z,96444.05
2017-12-20T21:31:08.689Z,96434.34
2017-12-20T21:33:38.435Z,96439.52
2017-12-20T21:36:06.787Z,96433.23
2017-12-20T21:38:35.129Z,96427.37
2017-12-20T21:41:03.467Z,96421.48
2017-12-20T21:43:31.811Z,96419.91
2017-12-20T21:46:00.169Z,96427.24
2017-12-20T21:48:28.503Z,96425.94
2017-12-20T21:50:56.842Z,96432.97
2017-12-20T21:53:25.170Z,96443.86
2017-12-20T21:55:53.518Z,96445.33
2017-12-20T21:58:21.878Z,96447.80
2017-12-20T22:00:50.216Z,96456.73
2017-12-20T22:03:18.564Z,96451.58
2017-12-20T22:05:46.894Z,96453.34
2017-12-20T22:08:15.775Z,96446.88
2017-12-20T22:10:44.190Z,96445.75
2017-12-20T22:13:12.516Z,96452.34
2017-12-20T22:15:40.855Z,96448.59
2017-12-20T22:18:09.187Z,96445.52
2017-12-20T22:20:37.515Z,96439.44
2017-12-20T22:23:05.903Z,96438.36
2017-12-20T22:25:34.225Z,96434.39
2017-12-20T22:28:02.572Z,96429.86
2017-12-20T22:30:30.910Z,96433.63
2017-12-20T22:32:59.260Z,96433.67
2017-12-20T22:35:27.632Z,96448.61
2017-12-20T22:37:55.971Z,96442.06
2017-12-20T22:40:24.302Z,96446.14
2017-12-20T22:42:52.632Z,96448.59
2017-12-20T22:45:20.961Z,96445.02
2017-12-20T22:47:49.302Z,96439.95
2017-12-20T22:50:17.717Z,96436.89
2017-12-20T22:52:46.017Z,96432.55
2017-12-20T22:55:14.369Z,96424.02
2017-12-20T22:57:42.711Z,96424.80
2017-12-20T23:00:11.093Z,96421.61
2017-12-20T23:02:39.425Z,96426.64
2017-12-20T23:05:07.757Z,96429.18
2017-12-20T23:07:36.094Z,96430.20
2017-12-20T23:10:04.433Z,96427.43
2017-12-20T23:12:32.782Z,96442.61
2017-12-20T23:15:01.168Z,96460.52
2017-12-20T23:17:29.511Z,96460.72
2017-12-20T23:19:57.875Z,96464.98
2017-12-20T23:22:26.210Z,96466.97
2017-12-20T23:24:54.541Z,96469.83
2017-12-20T23:27:22.894Z,96462.91
2017-12-20T23:29:51.241Z,96448.36
2017-12-20T23:32:19.594Z,96447.59
2017-12-20T23:34:47.953Z,96440.05
2017-12-20T23:37:16.294Z,96440.93
2017-12-20T23:39:44.766Z,96448.45
2017-12-20T23:42:13.077Z,96462.10
2017-12-20T23:44:41.433Z,96461.44
2017-12-20T23:47:09.854Z,96448.98
2017-12-20T23:49:38.126Z,96445.23
2017-12-20T23:52:06.599Z,96445.36
2017-12-20T23:54:34.937Z,96470.73
2017-12-20T23:57:03.286Z,96482.07
2017-12-20T23:59:31.648Z,96470.70
